SKW4007 KDTW-CYYZ
Flight info
| Callsign | SKW4007 |
|---|---|
| Flight time | N/A |
| Altitude | 31000 |
| Route | ZETTR4 TANKO DCT APDAX NUBER6 |
| Aircraft | CRJ7/M-SDFGIRWY/S |
Departure
| Time | 2026-05-04 13:42 |
|---|---|
| Airport | Detroit Metropolitan Wayne County Airport (KDTW) |
Arrival
| Time | N/A |
|---|---|
| Airport | Toronto Pearson International Airport (CYYZ) |
| Time | Latitude | Longitude | Altitude | Speed | Heading |
|---|---|---|---|---|---|
| 2026-05-04 13:24 | 42.21307 | -83.35972 | 644 ft | 0 kts | 119° |
| 2026-05-04 13:29 | 42.21313 | -83.35986 | 644 ft | 3 kts | 119° |
| 2026-05-04 13:30 | 42.21318 | -83.35998 | 644 ft | 3 kts | 119° |
| 2026-05-04 13:30 | 42.21327 | -83.36021 | 644 ft | 3 kts | 110° |
| 2026-05-04 13:30 | 42.21327 | -83.36040 | 645 ft | 3 kts | 51° |
| 2026-05-04 13:30 | 42.21318 | -83.36048 | 644 ft | 1 kts | 28° |
| 2026-05-04 13:31 | 42.21304 | -83.36059 | 644 ft | 2 kts | 28° |
| 2026-05-04 13:31 | 42.21299 | -83.36062 | 644 ft | 1 kts | 28° |
| 2026-05-04 13:32 | 42.21300 | -83.36062 | 644 ft | 0 kts | 28° |
| 2026-05-04 13:34 | 42.21305 | -83.36058 | 644 ft | 2 kts | 28° |
| 2026-05-04 13:34 | 42.21329 | -83.36041 | 645 ft | 5 kts | 28° |
| 2026-05-04 13:34 | 42.21371 | -83.36010 | 644 ft | 8 kts | 28° |
| 2026-05-04 13:35 | 42.21428 | -83.35969 | 644 ft | 10 kts | 28° |
| 2026-05-04 13:35 | 42.21541 | -83.35846 | 644 ft | 11 kts | 83° |
| 2026-05-04 13:35 | 42.21543 | -83.35734 | 644 ft | 13 kts | 89° |
| 2026-05-04 13:36 | 42.21544 | -83.35604 | 644 ft | 14 kts | 89° |
| 2026-05-04 13:36 | 42.21547 | -83.35466 | 644 ft | 15 kts | 88° |
| 2026-05-04 13:36 | 42.21550 | -83.35321 | 644 ft | 16 kts | 88° |
| 2026-05-04 13:36 | 42.21553 | -83.35169 | 644 ft | 17 kts | 89° |
| 2026-05-04 13:37 | 42.21597 | -83.35032 | 646 ft | 17 kts | 43° |
| 2026-05-04 13:37 | 42.21654 | -83.34960 | 644 ft | 17 kts | 43° |
| 2026-05-04 13:37 | 42.21741 | -83.34848 | 645 ft | 17 kts | 43° |
| 2026-05-04 13:37 | 42.21828 | -83.34728 | 646 ft | 18 kts | 64° |
| 2026-05-04 13:38 | 42.21838 | -83.34559 | 645 ft | 18 kts | 82° |
| 2026-05-04 13:38 | 42.21925 | -83.34450 | 644 ft | 18 kts | 29° |
| 2026-05-04 13:38 | 42.22039 | -83.34366 | 645 ft | 19 kts | 28° |
| 2026-05-04 13:38 | 42.22159 | -83.34278 | 644 ft | 20 kts | 28° |
| 2026-05-04 13:39 | 42.22283 | -83.34187 | 645 ft | 21 kts | 29° |
| 2026-05-04 13:39 | 42.22410 | -83.34093 | 644 ft | 21 kts | 28° |
| 2026-05-04 13:39 | 42.22536 | -83.34000 | 645 ft | 20 kts | 28° |
| 2026-05-04 13:39 | 42.22664 | -83.33907 | 644 ft | 21 kts | 28° |
| 2026-05-04 13:40 | 42.22788 | -83.33815 | 644 ft | 20 kts | 29° |
| 2026-05-04 13:40 | 42.22857 | -83.33715 | 643 ft | 14 kts | 104° |
| 2026-05-04 13:40 | 42.22792 | -83.33638 | 643 ft | 12 kts | 188° |
| 2026-05-04 13:40 | 42.22734 | -83.33684 | 644 ft | 8 kts | 207° |
| 2026-05-04 13:41 | 42.22729 | -83.33688 | 644 ft | 0 kts | 207° |
| 2026-05-04 13:41 | 42.22715 | -83.33698 | 645 ft | 16 kts | 208° |
| 2026-05-04 13:41 | 42.22381 | -83.33947 | 645 ft | 92 kts | 208° |
| 2026-05-04 13:42 | 42.20661 | -83.35249 | 1171 ft | 161 kts | 212° |
| 2026-05-04 13:42 | 42.19772 | -83.35982 | 2338 ft | 151 kts | 213° |
| 2026-05-04 13:42 | 42.18630 | -83.36293 | 2819 ft | 197 kts | 172° |
| 2026-05-04 13:42 | 42.17331 | -83.35322 | 3575 ft | 227 kts | 153° |
| 2026-05-04 13:43 | 42.15870 | -83.34442 | 4458 ft | 235 kts | 170° |
| 2026-05-04 13:43 | 42.14245 | -83.33932 | 5410 ft | 244 kts | 174° |
| 2026-05-04 13:43 | 42.12569 | -83.33459 | 6479 ft | 250 kts | 169° |
| 2026-05-04 13:43 | 42.10947 | -83.32444 | 7423 ft | 264 kts | 154° |
| 2026-05-04 13:44 | 42.09582 | -83.30717 | 8349 ft | 281 kts | 122° |
| 2026-05-04 13:44 | 42.09071 | -83.28158 | 9305 ft | 291 kts | 88° |
| 2026-05-04 13:44 | 42.09447 | -83.25466 | 10162 ft | 299 kts | 72° |
| 2026-05-04 13:44 | 42.10143 | -83.22716 | 10629 ft | 320 kts | 69° |
| 2026-05-04 13:45 | 42.10824 | -83.19772 | 11194 ft | 339 kts | 73° |
| 2026-05-04 13:45 | 42.11415 | -83.16613 | 11825 ft | 354 kts | 72° |
| 2026-05-04 13:45 | 42.12471 | -83.13836 | 12608 ft | 353 kts | 46° |
| 2026-05-04 13:45 | 42.14382 | -83.11812 | 13517 ft | 348 kts | 24° |
| 2026-05-04 13:46 | 42.16548 | -83.10326 | 14318 ft | 351 kts | 21° |
| 2026-05-04 13:46 | 42.18757 | -83.08867 | 15133 ft | 354 kts | 21° |
| 2026-05-04 13:46 | 42.20942 | -83.07372 | 15924 ft | 360 kts | 23° |
| 2026-05-04 13:46 | 42.23131 | -83.05686 | 16700 ft | 365 kts | 25° |
| 2026-05-04 13:47 | 42.25311 | -83.03894 | 17459 ft | 369 kts | 26° |
| 2026-05-04 13:47 | 42.27404 | -83.02094 | 18167 ft | 373 kts | 27° |
| 2026-05-04 13:47 | 42.29594 | -83.00182 | 18804 ft | 376 kts | 27° |
| 2026-05-04 13:47 | 42.31802 | -82.98259 | 19429 ft | 379 kts | 26° |
| 2026-05-04 13:48 | 42.34045 | -82.96360 | 20046 ft | 382 kts | 26° |
| 2026-05-04 13:48 | 42.36312 | -82.94456 | 20621 ft | 385 kts | 25° |
| 2026-05-04 13:48 | 42.38598 | -82.92547 | 21202 ft | 388 kts | 26° |
| 2026-05-04 13:48 | 42.40904 | -82.90619 | 21773 ft | 391 kts | 26° |
| 2026-05-04 13:49 | 42.43227 | -82.88670 | 22303 ft | 395 kts | 26° |
| 2026-05-04 13:49 | 42.45590 | -82.86691 | 22582 ft | 405 kts | 26° |
| 2026-05-04 13:49 | 42.48026 | -82.84653 | 22665 ft | 418 kts | 26° |
| 2026-05-04 13:49 | 42.50548 | -82.82541 | 22713 ft | 432 kts | 26° |
| 2026-05-04 13:50 | 42.53053 | -82.80432 | 22739 ft | 441 kts | 26° |
| 2026-05-04 13:50 | 42.55428 | -82.78422 | 22746 ft | 445 kts | 26° |
| 2026-05-04 13:50 | 42.58075 | -82.76185 | 22754 ft | 450 kts | 26° |
| 2026-05-04 13:50 | 42.60746 | -82.73933 | 22750 ft | 454 kts | 26° |
| 2026-05-04 13:51 | 42.63436 | -82.71666 | 22747 ft | 455 kts | 26° |
| 2026-05-04 13:51 | 42.66126 | -82.69389 | 22745 ft | 456 kts | 26° |
| 2026-05-04 13:51 | 42.68819 | -82.67110 | 22744 ft | 456 kts | 26° |
| 2026-05-04 13:51 | 42.71503 | -82.64840 | 22743 ft | 454 kts | 26° |
| 2026-05-04 13:52 | 42.76855 | -82.60297 | 22744 ft | 452 kts | 26° |
| 2026-05-04 13:52 | 42.79387 | -82.58150 | 22750 ft | 451 kts | 26° |
| 2026-05-04 13:52 | 42.82049 | -82.55884 | 22746 ft | 451 kts | 26° |
| 2026-05-04 13:53 | 42.84709 | -82.53622 | 22743 ft | 450 kts | 26° |
| 2026-05-04 13:53 | 42.87360 | -82.51367 | 22741 ft | 449 kts | 26° |
| 2026-05-04 13:53 | 42.90013 | -82.49100 | 22747 ft | 449 kts | 27° |
| 2026-05-04 13:54 | 42.95298 | -82.44585 | 22743 ft | 448 kts | 27° |
| 2026-05-04 13:54 | 42.97779 | -82.42460 | 22746 ft | 447 kts | 27° |
| 2026-05-04 13:54 | 43.02705 | -82.37311 | 22748 ft | 457 kts | 49° |
| 2026-05-04 13:55 | 43.04164 | -82.33416 | 22749 ft | 466 kts | 68° |
| 2026-05-04 13:55 | 43.05809 | -82.24998 | 22747 ft | 465 kts | 72° |
| 2026-05-04 13:55 | 43.06677 | -82.20749 | 22748 ft | 463 kts | 69° |
| 2026-05-04 13:56 | 43.07657 | -82.16559 | 22746 ft | 461 kts | 68° |
| 2026-05-04 13:56 | 43.08655 | -82.12472 | 22744 ft | 460 kts | 68° |
| 2026-05-04 13:56 | 43.10585 | -82.04385 | 22739 ft | 458 kts | 69° |
| 2026-05-04 13:57 | 43.11544 | -82.00233 | 22745 ft | 458 kts | 69° |
| 2026-05-04 13:57 | 43.12497 | -81.96085 | 22743 ft | 457 kts | 69° |
| 2026-05-04 13:58 | 43.15369 | -81.83669 | 22747 ft | 455 kts | 69° |
| 2026-05-04 13:58 | 43.17275 | -81.75406 | 22749 ft | 454 kts | 69° |
| 2026-05-04 13:58 | 43.18170 | -81.71511 | 22747 ft | 454 kts | 69° |
| 2026-05-04 13:59 | 43.19113 | -81.67386 | 22747 ft | 454 kts | 69° |
| 2026-05-04 13:59 | 43.20059 | -81.63253 | 22754 ft | 453 kts | 69° |
| 2026-05-04 13:59 | 43.21940 | -81.55011 | 22752 ft | 453 kts | 69° |
| 2026-05-04 14:00 | 43.22874 | -81.50902 | 22753 ft | 452 kts | 69° |
| 2026-05-04 14:00 | 43.24740 | -81.42674 | 22766 ft | 451 kts | 69° |
| 2026-05-04 14:00 | 43.25649 | -81.38665 | 22767 ft | 451 kts | 69° |
| 2026-05-04 14:01 | 43.26557 | -81.34646 | 22769 ft | 451 kts | 69° |
| 2026-05-04 14:01 | 43.27488 | -81.30540 | 22768 ft | 451 kts | 69° |
| 2026-05-04 14:01 | 43.29305 | -81.22310 | 22768 ft | 450 kts | 70° |
| 2026-05-04 14:02 | 43.30163 | -81.18264 | 22779 ft | 450 kts | 70° |
| 2026-05-04 14:02 | 43.30991 | -81.14178 | 22776 ft | 451 kts | 71° |
| 2026-05-04 14:02 | 43.31782 | -81.10012 | 22773 ft | 451 kts | 72° |
| 2026-05-04 14:02 | 43.32555 | -81.05838 | 22769 ft | 451 kts | 72° |
| 2026-05-04 14:03 | 43.33275 | -81.01969 | 22770 ft | 450 kts | 72° |
| 2026-05-04 14:03 | 43.34089 | -80.97808 | 22761 ft | 450 kts | 71° |
| 2026-05-04 14:03 | 43.34905 | -80.93655 | 22729 ft | 450 kts | 71° |
| 2026-05-04 14:03 | 43.35724 | -80.89506 | 22717 ft | 449 kts | 71° |
| 2026-05-04 14:04 | 43.37334 | -80.81296 | 22431 ft | 449 kts | 71° |
| 2026-05-04 14:04 | 43.38148 | -80.77128 | 22004 ft | 454 kts | 71° |
| 2026-05-04 14:04 | 43.38965 | -80.72928 | 21561 ft | 455 kts | 71° |
| 2026-05-04 14:05 | 43.40562 | -80.64693 | 20568 ft | 460 kts | 72° |
| 2026-05-04 14:05 | 43.41386 | -80.60440 | 20030 ft | 459 kts | 72° |
| 2026-05-04 14:05 | 43.42200 | -80.56224 | 19494 ft | 458 kts | 72° |
| 2026-05-04 14:06 | 43.43024 | -80.51954 | 18965 ft | 455 kts | 72° |
| 2026-05-04 14:06 | 43.43821 | -80.47821 | 18464 ft | 451 kts | 72° |
| 2026-05-04 14:06 | 43.44617 | -80.43664 | 17929 ft | 446 kts | 72° |
| 2026-05-04 14:06 | 43.45403 | -80.39561 | 17328 ft | 441 kts | 73° |
| 2026-05-04 14:07 | 43.46245 | -80.35550 | 16768 ft | 434 kts | 68° |
| 2026-05-04 14:07 | 43.47278 | -80.31911 | 16251 ft | 428 kts | 64° |
| 2026-05-04 14:07 | 43.48431 | -80.28153 | 15707 ft | 424 kts | 64° |
| 2026-05-04 14:07 | 43.49555 | -80.24419 | 15196 ft | 420 kts | 65° |
| 2026-05-04 14:08 | 43.50608 | -80.20683 | 14698 ft | 417 kts | 66° |
| 2026-05-04 14:08 | 43.51628 | -80.16965 | 14213 ft | 414 kts | 67° |
| 2026-05-04 14:08 | 43.52598 | -80.13251 | 13726 ft | 410 kts | 68° |
| 2026-05-04 14:08 | 43.53556 | -80.09567 | 13204 ft | 406 kts | 68° |
| 2026-05-04 14:09 | 43.55451 | -80.02381 | 12185 ft | 390 kts | 68° |
| 2026-05-04 14:09 | 43.56344 | -79.99038 | 11728 ft | 382 kts | 68° |
| 2026-05-04 14:10 | 43.58084 | -79.92514 | 10842 ft | 370 kts | 68° |
| 2026-05-04 14:10 | 43.58967 | -79.89209 | 10422 ft | 364 kts | 66° |
| 2026-05-04 14:10 | 43.60278 | -79.86329 | 9996 ft | 351 kts | 41° |
| 2026-05-04 14:10 | 43.62162 | -79.84272 | 9589 ft | 341 kts | 30° |
| 2026-05-04 14:11 | 43.64123 | -79.82499 | 9158 ft | 335 kts | 28° |
| 2026-05-04 14:11 | 43.67987 | -79.79031 | 8331 ft | 327 kts | 30° |
| 2026-05-04 14:11 | 43.69846 | -79.77264 | 7940 ft | 323 kts | 31° |
| 2026-05-04 14:12 | 43.71671 | -79.75478 | 7559 ft | 319 kts | 31° |
| 2026-05-04 14:12 | 43.73476 | -79.73722 | 7179 ft | 316 kts | 31° |
| 2026-05-04 14:12 | 43.76827 | -79.69863 | 6438 ft | 313 kts | 44° |
| 2026-05-04 14:13 | 43.78295 | -79.67655 | 6078 ft | 310 kts | 44° |
| 2026-05-04 14:13 | 43.79745 | -79.65459 | 5696 ft | 308 kts | 45° |
| 2026-05-04 14:13 | 43.81139 | -79.63303 | 5125 ft | 311 kts | 46° |
| 2026-05-04 14:13 | 43.82489 | -79.61247 | 4435 ft | 317 kts | 46° |
| 2026-05-04 14:14 | 43.83996 | -79.58982 | 3705 ft | 320 kts | 45° |
| 2026-05-04 14:14 | 43.86957 | -79.54641 | 3148 ft | 296 kts | 45° |
| 2026-05-04 14:14 | 43.88316 | -79.52649 | 3067 ft | 280 kts | 44° |
| 2026-05-04 14:15 | 43.90820 | -79.48896 | 2996 ft | 251 kts | 45° |
| 2026-05-04 14:15 | 43.93069 | -79.45538 | 2973 ft | 225 kts | 45° |
| 2026-05-04 14:16 | 43.93727 | -79.41886 | 2962 ft | 187 kts | 129° |
| 2026-05-04 14:16 | 43.92823 | -79.40860 | 2991 ft | 160 kts | 169° |
| 2026-05-04 14:17 | 43.90633 | -79.39781 | 3004 ft | 175 kts | 169° |
| 2026-05-04 14:17 | 43.89438 | -79.39314 | 3020 ft | 181 kts | 181° |
| 2026-05-04 14:17 | 43.86944 | -79.39310 | 3085 ft | 179 kts | 189° |
| 2026-05-04 14:18 | 43.85775 | -79.39749 | 3082 ft | 172 kts | 216° |
| 2026-05-04 14:18 | 43.83910 | -79.41818 | 3047 ft | 172 kts | 232° |
| 2026-05-04 14:19 | 43.82412 | -79.44334 | 3056 ft | 162 kts | 233° |
| 2026-05-04 14:19 | 43.81696 | -79.45517 | 3040 ft | 158 kts | 232° |
| 2026-05-04 14:19 | 43.80990 | -79.46634 | 3028 ft | 155 kts | 231° |
| 2026-05-04 14:19 | 43.80284 | -79.47705 | 3012 ft | 152 kts | 231° |
| 2026-05-04 14:20 | 43.79565 | -79.48764 | 3003 ft | 149 kts | 230° |
| 2026-05-04 14:20 | 43.78855 | -79.49796 | 2987 ft | 146 kts | 229° |
| 2026-05-04 14:20 | 43.78172 | -79.50789 | 2979 ft | 142 kts | 229° |
| 2026-05-04 14:21 | 43.76770 | -79.52799 | 2710 ft | 152 kts | 229° |
| 2026-05-04 14:21 | 43.76034 | -79.53868 | 2483 ft | 154 kts | 229° |
| 2026-05-04 14:21 | 43.75327 | -79.54909 | 2320 ft | 144 kts | 230° |
| 2026-05-04 14:21 | 43.74661 | -79.55907 | 2102 ft | 136 kts | 230° |
| 2026-05-04 14:22 | 43.74043 | -79.56852 | 1832 ft | 130 kts | 231° |
| 2026-05-04 14:22 | 43.73440 | -79.57804 | 1590 ft | 133 kts | 230° |
| 2026-05-04 14:22 | 43.72842 | -79.58780 | 1323 ft | 136 kts | 229° |
| 2026-05-04 14:22 | 43.72193 | -79.59725 | 1094 ft | 134 kts | 225° |
| 2026-05-04 14:23 | 43.70867 | -79.61473 | 871 ft | 129 kts | 225° |
| 2026-05-04 14:23 | 43.70219 | -79.62366 | 744 ft | 135 kts | 225° |
| 2026-05-04 14:23 | 43.69566 | -79.63273 | 630 ft | 139 kts | 226° |
| 2026-05-04 14:24 | 43.68939 | -79.64181 | 563 ft | 131 kts | 227° |
| 2026-05-04 14:24 | 43.68368 | -79.65029 | 562 ft | 105 kts | 226° |